sensor_id;sensor_type;location;lat;lon;timestamp;P1;durP1;ratioP1;P2;durP2;ratioP2
30466;SDS011;17258;52.560;13.046;2024-03-08T00:00:31;10.60;;;9.53;;
30466;SDS011;17258;52.560;13.046;2024-03-08T00:10:34;12.20;;;10.98;;
30466;SDS011;17258;52.560;13.046;2024-03-08T00:20:34;12.30;;;9.30;;
30466;SDS011;17258;52.560;13.046;2024-03-08T00:30:35;11.93;;;10.57;;
30466;SDS011;17258;52.560;13.046;2024-03-08T00:40:36;11.30;;;10.20;;
30466;SDS011;17258;52.560;13.046;2024-03-08T00:50:36;10.40;;;8.97;;
30466;SDS011;17258;52.560;13.046;2024-03-08T01:00:37;11.43;;;9.13;;
30466;SDS011;17258;52.560;13.046;2024-03-08T01:10:38;10.52;;;9.45;;
30466;SDS011;17258;52.560;13.046;2024-03-08T01:20:39;12.87;;;9.73;;
30466;SDS011;17258;52.560;13.046;2024-03-08T01:30:41;11.55;;;10.40;;
30466;SDS011;17258;52.560;13.046;2024-03-08T01:40:42;10.70;;;9.35;;
30466;SDS011;17258;52.560;13.046;2024-03-08T01:50:43;11.25;;;8.68;;
30466;SDS011;17258;52.560;13.046;2024-03-08T02:00:46;12.23;;;8.75;;
30466;SDS011;17258;52.560;13.046;2024-03-08T02:10:49;12.25;;;9.98;;
30466;SDS011;17258;52.560;13.046;2024-03-08T02:20:51;12.93;;;9.75;;
30466;SDS011;17258;52.560;13.046;2024-03-08T02:30:55;10.23;;;8.45;;
30466;SDS011;17258;52.560;13.046;2024-03-08T02:40:56;11.60;;;9.55;;
30466;SDS011;17258;52.560;13.046;2024-03-08T02:50:56;12.53;;;9.60;;
30466;SDS011;17258;52.560;13.046;2024-03-08T03:00:57;13.17;;;9.40;;
30466;SDS011;17258;52.560;13.046;2024-03-08T03:10:58;14.50;;;9.18;;
30466;SDS011;17258;52.560;13.046;2024-03-08T03:20:58;11.00;;;7.97;;
30466;SDS011;17258;52.560;13.046;2024-03-08T03:30:59;12.37;;;9.50;;
30466;SDS011;17258;52.560;13.046;2024-03-08T03:41:01;8.45;;;7.65;;
30466;SDS011;17258;52.560;13.046;2024-03-08T03:51:10;12.93;;;9.10;;
30466;SDS011;17258;52.560;13.046;2024-03-08T04:01:10;10.38;;;8.70;;
30466;SDS011;17258;52.560;13.046;2024-03-08T04:11:11;11.37;;;10.20;;
30466;SDS011;17258;52.560;13.046;2024-03-08T04:21:12;17.50;;;9.57;;
30466;SDS011;17258;52.560;13.046;2024-03-08T04:31:13;11.10;;;10.10;;
30466;SDS011;17258;52.560;13.046;2024-03-08T04:41:13;13.18;;;8.88;;
30466;SDS011;17258;52.560;13.046;2024-03-08T04:51:14;9.85;;;8.68;;
30466;SDS011;17258;52.560;13.046;2024-03-08T05:01:15;12.23;;;8.80;;
30466;SDS011;17258;52.560;13.046;2024-03-08T05:11:16;10.00;;;8.65;;
30466;SDS011;17258;52.560;13.046;2024-03-08T05:21:17;11.18;;;10.07;;
30466;SDS011;17258;52.560;13.046;2024-03-08T05:31:20;12.10;;;10.07;;
30466;SDS011;17258;52.560;13.046;2024-03-08T05:41:24;15.88;;;9.23;;
30466;SDS011;17258;52.560;13.046;2024-03-08T05:51:25;14.95;;;11.20;;
30466;SDS011;17258;52.560;13.046;2024-03-08T06:01:27;10.20;;;9.20;;
30466;SDS011;17258;52.560;13.046;2024-03-08T06:11:29;13.25;;;10.52;;
30466;SDS011;17258;52.560;13.046;2024-03-08T06:21:31;15.55;;;10.90;;
30466;SDS011;17258;52.560;13.046;2024-03-08T06:31:32;16.07;;;11.40;;
30466;SDS011;17258;52.560;13.046;2024-03-08T06:41:33;15.85;;;13.27;;
30466;SDS011;17258;52.560;13.046;2024-03-08T06:51:34;20.75;;;12.75;;
30466;SDS011;17258;52.560;13.046;2024-03-08T07:01:34;16.85;;;12.20;;
30466;SDS011;17258;52.560;13.046;2024-03-08T07:11:36;14.93;;;12.57;;
30466;SDS011;17258;52.560;13.046;2024-03-08T07:21:37;15.07;;;13.33;;
30466;SDS011;17258;52.560;13.046;2024-03-08T07:31:37;16.60;;;14.13;;
30466;SDS011;17258;52.560;13.046;2024-03-08T07:41:50;19.10;;;15.82;;
30466;SDS011;17258;52.560;13.046;2024-03-08T07:51:54;19.95;;;14.23;;
30466;SDS011;17258;52.560;13.046;2024-03-08T08:01:55;36.53;;;32.85;;
30466;SDS011;17258;52.560;13.046;2024-03-08T08:11:55;34.87;;;31.73;;
30466;SDS011;17258;52.560;13.046;2024-03-08T08:21:56;21.97;;;18.77;;
30466;SDS011;17258;52.560;13.046;2024-03-08T08:31:57;36.20;;;32.67;;
30466;SDS011;17258;52.560;13.046;2024-03-08T08:41:59;34.85;;;31.70;;
30466;SDS011;17258;52.560;13.046;2024-03-08T08:52:00;35.47;;;32.15;;
30466;SDS011;17258;52.560;13.046;2024-03-08T09:02:01;33.38;;;29.88;;
30466;SDS011;17258;52.560;13.046;2024-03-08T09:12:03;33.15;;;30.13;;
30466;SDS011;17258;52.560;13.046;2024-03-08T09:22:04;29.60;;;27.30;;
30466;SDS011;17258;52.560;13.046;2024-03-08T09:32:05;27.80;;;25.63;;
30466;SDS011;17258;52.560;13.046;2024-03-08T09:42:05;32.60;;;29.77;;
30466;SDS011;17258;52.560;13.046;2024-03-08T09:52:07;37.97;;;34.20;;
30466;SDS011;17258;52.560;13.046;2024-03-08T10:02:11;34.60;;;31.48;;
30466;SDS011;17258;52.560;13.046;2024-03-08T10:12:15;35.65;;;32.15;;
30466;SDS011;17258;52.560;13.046;2024-03-08T10:22:19;35.13;;;31.75;;
30466;SDS011;17258;52.560;13.046;2024-03-08T10:32:20;34.45;;;31.17;;
30466;SDS011;17258;52.560;13.046;2024-03-08T10:42:21;35.03;;;31.65;;
30466;SDS011;17258;52.560;13.046;2024-03-08T10:52:28;34.13;;;31.03;;
30466;SDS011;17258;52.560;13.046;2024-03-08T11:02:29;36.13;;;32.70;;
30466;SDS011;17258;52.560;13.046;2024-03-08T11:12:36;34.42;;;31.33;;
30466;SDS011;17258;52.560;13.046;2024-03-08T11:22:37;33.38;;;30.42;;
30466;SDS011;17258;52.560;13.046;2024-03-08T11:32:44;33.72;;;30.77;;
30466;SDS011;17258;52.560;13.046;2024-03-08T11:42:46;32.67;;;29.67;;
30466;SDS011;17258;52.560;13.046;2024-03-08T11:52:48;32.13;;;29.23;;
30466;SDS011;17258;52.560;13.046;2024-03-08T12:03:05;33.25;;;30.20;;
30466;SDS011;17258;52.560;13.046;2024-03-08T12:13:09;31.52;;;28.50;;
30466;SDS011;17258;52.560;13.046;2024-03-08T12:23:14;33.13;;;29.83;;
30466;SDS011;17258;52.560;13.046;2024-03-08T12:33:16;31.67;;;28.63;;
30466;SDS011;17258;52.560;13.046;2024-03-08T12:43:17;32.50;;;29.60;;
30466;SDS011;17258;52.560;13.046;2024-03-08T12:53:18;33.08;;;29.42;;
30466;SDS011;17258;52.560;13.046;2024-03-08T13:03:19;33.03;;;29.90;;
30466;SDS011;17258;52.560;13.046;2024-03-08T13:13:20;32.95;;;29.88;;
30466;SDS011;17258;52.560;13.046;2024-03-08T13:23:21;40.40;;;30.37;;
30466;SDS011;17258;52.560;13.046;2024-03-08T13:33:22;32.43;;;29.27;;
30466;SDS011;17258;52.560;13.046;2024-03-08T13:43:23;31.15;;;28.35;;
30466;SDS011;17258;52.560;13.046;2024-03-08T13:53:24;31.88;;;29.05;;
30466;SDS011;17258;52.560;13.046;2024-03-08T14:03:24;32.60;;;29.50;;
30466;SDS011;17258;52.560;13.046;2024-03-08T14:13:25;33.28;;;29.98;;
30466;SDS011;17258;52.560;13.046;2024-03-08T14:23:26;29.55;;;26.85;;
30466;SDS011;17258;52.560;13.046;2024-03-08T14:33:27;28.37;;;25.63;;
30466;SDS011;17258;52.560;13.046;2024-03-08T14:43:28;28.15;;;25.45;;
30466;SDS011;17258;52.560;13.046;2024-03-08T14:53:28;25.63;;;23.33;;
30466;SDS011;17258;52.560;13.046;2024-03-08T15:03:29;28.02;;;25.30;;
30466;SDS011;17258;52.560;13.046;2024-03-08T15:13:30;22.87;;;20.77;;
30466;SDS011;17258;52.560;13.046;2024-03-08T15:23:41;20.83;;;18.98;;
30466;SDS011;17258;52.560;13.046;2024-03-08T15:33:46;18.52;;;15.07;;
30466;SDS011;17258;52.560;13.046;2024-03-08T15:43:58;13.00;;;11.75;;
30466;SDS011;17258;52.560;13.046;2024-03-08T15:53:59;9.77;;;8.55;;
30466;SDS011;17258;52.560;13.046;2024-03-08T16:04:00;9.90;;;7.37;;
30466;SDS011;17258;52.560;13.046;2024-03-08T16:14:01;10.20;;;8.60;;
30466;SDS011;17258;52.560;13.046;2024-03-08T16:24:03;9.70;;;8.05;;
30466;SDS011;17258;52.560;13.046;2024-03-08T16:34:04;7.90;;;7.20;;
30466;SDS011;17258;52.560;13.046;2024-03-08T16:44:05;9.45;;;7.35;;
30466;SDS011;17258;52.560;13.046;2024-03-08T16:54:06;7.93;;;7.13;;
30466;SDS011;17258;52.560;13.046;2024-03-08T17:04:08;11.45;;;7.07;;
30466;SDS011;17258;52.560;13.046;2024-03-08T17:14:08;9.97;;;6.40;;
30466;SDS011;17258;52.560;13.046;2024-03-08T17:24:11;8.07;;;6.47;;
30466;SDS011;17258;52.560;13.046;2024-03-08T17:34:16;11.63;;;8.43;;
30466;SDS011;17258;52.560;13.046;2024-03-08T17:44:20;8.73;;;6.72;;
30466;SDS011;17258;52.560;13.046;2024-03-08T17:54:22;8.05;;;6.88;;
30466;SDS011;17258;52.560;13.046;2024-03-08T18:04:23;7.95;;;7.15;;
30466;SDS011;17258;52.560;13.046;2024-03-08T18:14:24;10.65;;;8.18;;
30466;SDS011;17258;52.560;13.046;2024-03-08T18:24:24;9.13;;;7.93;;
30466;SDS011;17258;52.560;13.046;2024-03-08T18:34:27;8.25;;;7.40;;
30466;SDS011;17258;52.560;13.046;2024-03-08T18:44:27;8.73;;;7.72;;
30466;SDS011;17258;52.560;13.046;2024-03-08T18:54:28;11.43;;;9.70;;
30466;SDS011;17258;52.560;13.046;2024-03-08T19:04:28;10.53;;;9.50;;
30466;SDS011;17258;52.560;13.046;2024-03-08T19:14:29;12.47;;;10.37;;
30466;SDS011;17258;52.560;13.046;2024-03-08T19:24:30;11.43;;;9.80;;
30466;SDS011;17258;52.560;13.046;2024-03-08T19:34:34;10.93;;;9.25;;
30466;SDS011;17258;52.560;13.046;2024-03-08T19:44:35;12.87;;;8.43;;
30466;SDS011;17258;52.560;13.046;2024-03-08T19:54:36;12.80;;;10.80;;
30466;SDS011;17258;52.560;13.046;2024-03-08T20:04:38;12.70;;;11.45;;
30466;SDS011;17258;52.560;13.046;2024-03-08T20:14:39;11.75;;;9.55;;
30466;SDS011;17258;52.560;13.046;2024-03-08T20:24:39;12.43;;;11.13;;
30466;SDS011;17258;52.560;13.046;2024-03-08T20:34:41;12.63;;;9.90;;
30466;SDS011;17258;52.560;13.046;2024-03-08T20:44:42;11.13;;;10.07;;
30466;SDS011;17258;52.560;13.046;2024-03-08T20:54:43;11.80;;;9.70;;
30466;SDS011;17258;52.560;13.046;2024-03-08T21:04:43;13.10;;;10.70;;
30466;SDS011;17258;52.560;13.046;2024-03-08T21:14:50;14.35;;;9.77;;
30466;SDS011;17258;52.560;13.046;2024-03-08T21:24:52;14.05;;;10.05;;
30466;SDS011;17258;52.560;13.046;2024-03-08T21:34:53;13.33;;;11.33;;
30466;SDS011;17258;52.560;13.046;2024-03-08T21:44:54;12.38;;;11.10;;
30466;SDS011;17258;52.560;13.046;2024-03-08T21:54:56;12.27;;;11.10;;
30466;SDS011;17258;52.560;13.046;2024-03-08T22:04:57;13.00;;;11.70;;
30466;SDS011;17258;52.560;13.046;2024-03-08T22:14:58;14.00;;;11.57;;
30466;SDS011;17258;52.560;13.046;2024-03-08T22:24:58;16.13;;;10.53;;
30466;SDS011;17258;52.560;13.046;2024-03-08T22:35:00;13.20;;;11.07;;
30466;SDS011;17258;52.560;13.046;2024-03-08T22:45:02;17.05;;;12.68;;
30466;SDS011;17258;52.560;13.046;2024-03-08T22:55:03;18.10;;;14.35;;
30466;SDS011;17258;52.560;13.046;2024-03-08T23:05:06;14.57;;;12.38;;
30466;SDS011;17258;52.560;13.046;2024-03-08T23:15:07;16.20;;;14.57;;
30466;SDS011;17258;52.560;13.046;2024-03-08T23:25:14;14.82;;;13.27;;
30466;SDS011;17258;52.560;13.046;2024-03-08T23:35:19;15.18;;;13.65;;
30466;SDS011;17258;52.560;13.046;2024-03-08T23:45:21;18.80;;;14.45;;
30466;SDS011;17258;52.560;13.046;2024-03-08T23:55:22;17.38;;;14.35;;
